createdAt,value
2019-03-11T00:00:27.555Z,63.31
2019-03-11T00:03:41.302Z,63.99
2019-03-11T00:06:55.353Z,62.60
2019-03-11T00:10:09.043Z,63.19
2019-03-11T00:13:23.255Z,63.25
2019-03-11T00:16:36.752Z,63.13
2019-03-11T00:19:50.349Z,62.96
2019-03-11T00:23:03.827Z,63.56
2019-03-11T00:26:17.426Z,63.31
2019-03-11T00:29:31.020Z,64.28
2019-03-11T00:32:44.768Z,63.68
2019-03-11T00:35:58.270Z,63.57
2019-03-11T00:39:11.769Z,64.45
2019-03-11T00:42:25.352Z,64.67
2019-03-11T00:45:38.943Z,64.13
2019-03-11T00:48:53.028Z,64.98
2019-03-11T00:52:06.514Z,63.93
2019-03-11T00:55:20.207Z,64.35
2019-03-11T00:58:33.989Z,64.82
2019-03-11T01:01:47.688Z,65.67
2019-03-11T01:05:01.286Z,65.32
2019-03-11T01:08:14.775Z,65.60
2019-03-11T01:11:28.372Z,64.87
2019-03-11T01:14:41.879Z,65.00
2019-03-11T01:17:55.346Z,65.54
2019-03-11T01:21:09.415Z,66.10
2019-03-11T01:24:22.903Z,64.82
2019-03-11T01:27:36.855Z,64.91
2019-03-11T01:30:50.647Z,64.76
2019-03-11T01:34:04.240Z,64.48
2019-03-11T01:37:17.957Z,64.57
2019-03-11T01:40:31.442Z,65.09
2019-03-11T01:43:44.920Z,64.67
2019-03-11T01:46:58.424Z,64.52
2019-03-11T01:50:12.229Z,64.91
2019-03-11T01:53:25.705Z,65.37
2019-03-11T01:56:39.193Z,65.12
2019-03-11T01:59:52.669Z,64.91
2019-03-11T02:03:06.608Z,65.50
2019-03-11T02:06:20.442Z,65.15
2019-03-11T02:09:34.263Z,64.73
2019-03-11T02:12:48.244Z,65.33
2019-03-11T02:16:01.843Z,65.37
2019-03-11T02:19:15.330Z,65.15
2019-03-11T02:22:28.943Z,64.61
2019-03-11T02:25:42.435Z,63.85
2019-03-11T02:28:55.915Z,64.73
2019-03-11T02:32:09.404Z,64.50
2019-03-11T02:35:27.269Z,64.25
2019-03-11T02:38:40.789Z,64.22
2019-03-11T02:41:54.267Z,64.90
2019-03-11T02:45:08.074Z,64.08
2019-03-11T02:48:21.902Z,64.71
2019-03-11T02:51:35.600Z,64.92
2019-03-11T02:54:49.368Z,65.01
2019-03-11T02:58:03.067Z,64.93
2019-03-11T03:01:51.628Z,64.98
2019-03-11T03:05:25.315Z,65.06
2019-03-11T03:08:38.809Z,64.85
2019-03-11T03:11:52.648Z,65.13
2019-03-11T03:15:06.460Z,65.69
2019-03-11T03:18:20.471Z,65.42
2019-03-11T03:21:33.957Z,66.08
2019-03-11T03:24:47.703Z,66.60
2019-03-11T03:28:01.471Z,66.84
2019-03-11T03:31:15.282Z,67.48
2019-03-11T03:34:28.773Z,68.22
2019-03-11T03:37:42.282Z,68.05
2019-03-11T03:40:55.872Z,68.30
2019-03-11T03:44:09.806Z,68.54
2019-03-11T03:47:23.270Z,69.24
2019-03-11T03:50:37.941Z,68.89
2019-03-11T03:53:51.965Z,68.53
2019-03-11T03:57:05.494Z,68.72
2019-03-11T04:00:19.047Z,69.35
2019-03-11T04:03:32.839Z,70.37
2019-03-11T04:06:46.317Z,70.17
2019-03-11T04:09:59.905Z,70.49
2019-03-11T04:13:13.396Z,71.14
2019-03-11T04:16:27.024Z,72.70
2019-03-11T04:19:40.973Z,75.21
2019-03-11T04:22:54.945Z,77.24
2019-03-11T04:26:08.916Z,77.44
2019-03-11T04:29:22.410Z,78.51
2019-03-11T04:32:35.991Z,78.82
2019-03-11T04:35:49.500Z,79.16
2019-03-11T04:39:04.921Z,78.90
2019-03-11T04:42:18.406Z,78.89
2019-03-11T04:45:31.879Z,78.80
2019-03-11T04:48:45.529Z,78.02
2019-03-11T04:51:59.026Z,78.37
2019-03-11T04:55:12.998Z,77.24
2019-03-11T04:58:26.898Z,77.41
2019-03-11T05:01:40.593Z,77.26
2019-03-11T05:04:54.483Z,76.89
2019-03-11T05:08:08.079Z,76.12
2019-03-11T05:11:21.560Z,75.80
2019-03-11T05:14:35.382Z,75.92
2019-03-11T05:17:49.129Z,74.44
2019-03-11T05:21:02.671Z,73.58
2019-03-11T05:24:16.490Z,73.91
2019-03-11T05:27:29.983Z,72.34
2019-03-11T05:30:50.127Z,71.03
2019-03-11T05:34:06.755Z,70.56
2019-03-11T05:37:20.666Z,70.66
2019-03-11T05:40:34.130Z,70.48
2019-03-11T05:43:47.638Z,70.30
2019-03-11T05:47:01.118Z,69.42
2019-03-11T05:50:14.807Z,67.13
2019-03-11T05:53:28.304Z,66.09
2019-03-11T05:56:41.787Z,66.09
2019-03-11T05:59:55.579Z,65.53
2019-03-11T06:03:09.087Z,66.21
2019-03-11T06:06:22.664Z,65.40
2019-03-11T06:09:36.163Z,64.32
2019-03-11T06:12:49.769Z,61.88
2019-03-11T06:16:03.457Z,61.35
2019-03-11T06:19:17.289Z,61.21
2019-03-11T06:22:32.163Z,61.05
2019-03-11T06:25:46.405Z,62.52
2019-03-11T06:29:00.219Z,62.59
2019-03-11T06:32:13.707Z,62.14
2019-03-11T06:35:27.327Z,62.20
2019-03-11T06:38:40.937Z,62.42
2019-03-11T06:41:54.458Z,63.58
2019-03-11T06:45:08.617Z,63.09
2019-03-11T06:48:22.476Z,63.55
2019-03-11T06:51:36.420Z,63.82
2019-03-11T06:54:50.139Z,64.61
2019-03-11T06:58:03.831Z,64.82
2019-03-11T07:01:17.358Z,63.37
2019-03-11T07:04:30.833Z,63.63
2019-03-11T07:07:44.420Z,64.55
2019-03-11T07:10:58.827Z,64.77
2019-03-11T07:14:12.448Z,64.00
2019-03-11T07:17:26.337Z,64.39
2019-03-11T07:20:39.945Z,63.88
2019-03-11T07:23:53.441Z,63.95
2019-03-11T07:27:07.699Z,63.35
2019-03-11T07:30:21.300Z,63.30
2019-03-11T07:33:34.790Z,62.56
2019-03-11T07:36:48.349Z,62.18
2019-03-11T07:40:02.090Z,62.40
2019-03-11T07:43:15.584Z,61.80
2019-03-11T07:46:29.212Z,60.86
2019-03-11T07:49:42.793Z,61.27
2019-03-11T07:52:56.349Z,60.31
2019-03-11T07:56:09.930Z,60.27
2019-03-11T07:59:23.405Z,58.74
2019-03-11T08:02:37.001Z,59.36
2019-03-11T08:05:50.801Z,58.61
2019-03-11T08:09:05.707Z,57.72
2019-03-11T08:12:19.208Z,56.93
2019-03-11T08:15:32.684Z,56.55
2019-03-11T08:18:46.437Z,56.90
2019-03-11T08:22:00.200Z,55.39
2019-03-11T08:25:14.115Z,54.05
2019-03-11T08:28:27.664Z,54.27
2019-03-11T08:31:41.145Z,53.60
2019-03-11T08:34:54.906Z,52.05
2019-03-11T08:38:08.405Z,53.08
2019-03-11T08:41:21.991Z,51.73
2019-03-11T08:44:35.476Z,52.48
2019-03-11T08:47:49.337Z,51.15
2019-03-11T08:51:02.914Z,49.03
2019-03-11T08:54:16.519Z,50.12
2019-03-11T08:57:30.012Z,50.21
2019-03-11T09:00:43.721Z,50.83
2019-03-11T09:03:57.315Z,48.85
2019-03-11T09:07:10.806Z,48.82
2019-03-11T09:10:24.297Z,49.92
2019-03-11T09:13:38.030Z,49.12
2019-03-11T09:16:51.510Z,48.46
2019-03-11T09:20:05.867Z,47.30
2019-03-11T09:23:19.334Z,48.04
2019-03-11T09:26:32.837Z,47.77
2019-03-11T09:29:46.347Z,49.18
2019-03-11T09:32:59.828Z,48.59
2019-03-11T09:36:13.332Z,48.58
2019-03-11T09:39:26.931Z,48.03
2019-03-11T09:42:40.618Z,48.84
2019-03-11T09:45:54.709Z,50.51
2019-03-11T09:49:08.303Z,49.47
2019-03-11T09:52:22.119Z,49.79
2019-03-11T09:55:35.600Z,50.50
2019-03-11T09:58:49.192Z,50.03
2019-03-11T10:02:02.880Z,50.76
2019-03-11T10:05:16.672Z,50.62
2019-03-11T10:08:30.164Z,51.52
2019-03-11T10:11:43.751Z,50.63
2019-03-11T10:14:57.554Z,50.65
2019-03-11T10:18:11.443Z,50.24
2019-03-11T10:21:24.939Z,49.43
2019-03-11T10:24:38.865Z,50.96
2019-03-11T10:27:52.344Z,49.55
2019-03-11T10:31:06.104Z,48.68
2019-03-11T10:34:20.270Z,47.88
2019-03-11T10:37:33.816Z,48.01
2019-03-11T10:40:47.822Z,48.01
2019-03-11T10:44:01.532Z,46.11
2019-03-11T10:47:15.030Z,45.72
2019-03-11T10:50:28.906Z,44.54
2019-03-11T10:53:42.807Z,45.14
2019-03-11T10:56:56.841Z,44.68
2019-03-11T11:00:13.212Z,45.79
2019-03-11T11:03:26.961Z,47.62
2019-03-11T11:06:40.491Z,48.35
2019-03-11T11:09:54.000Z,47.57
2019-03-11T11:13:07.719Z,49.86
2019-03-11T11:16:21.317Z,49.28
2019-03-11T11:19:35.527Z,48.95
2019-03-11T11:22:49.425Z,49.41
2019-03-11T11:26:03.107Z,49.75
2019-03-11T11:29:16.652Z,50.15
2019-03-11T11:32:30.516Z,50.44
2019-03-11T11:35:44.135Z,50.81
2019-03-11T11:38:57.941Z,52.17
2019-03-11T11:42:11.818Z,50.63
2019-03-11T11:45:25.803Z,47.85
2019-03-11T11:48:39.495Z,46.54
2019-03-11T11:51:52.996Z,47.03
2019-03-11T11:55:06.935Z,48.42
2019-03-11T11:58:20.540Z,50.00
2019-03-11T12:01:34.186Z,51.50
2019-03-11T12:04:48.189Z,49.63
2019-03-11T12:08:01.941Z,47.03
2019-03-11T12:11:15.558Z,43.58
2019-03-11T12:14:29.168Z,42.31
2019-03-11T12:17:43.209Z,41.92
2019-03-11T12:20:57.135Z,42.48
2019-03-11T12:24:10.775Z,45.20
2019-03-11T12:27:24.400Z,47.08
2019-03-11T12:30:38.306Z,47.17
2019-03-11T12:33:51.921Z,47.55
2019-03-11T12:37:05.555Z,48.22
2019-03-11T12:40:19.259Z,49.57
2019-03-11T12:43:32.967Z,49.23
2019-03-11T12:46:47.092Z,47.55
2019-03-11T12:50:00.635Z,46.14
2019-03-11T12:53:14.159Z,45.88
2019-03-11T12:56:28.050Z,46.27
2019-03-11T12:59:41.589Z,45.46
2019-03-11T13:02:55.802Z,42.49
2019-03-11T13:06:10.295Z,40.95
2019-03-11T13:09:23.791Z,40.46
2019-03-11T13:12:37.547Z,40.90
2019-03-11T13:15:51.307Z,40.66
2019-03-11T13:19:13.172Z,43.11
2019-03-11T13:22:21.787Z,44.32
2019-03-11T13:25:35.672Z,44.58
2019-03-11T13:28:49.310Z,45.74
2019-03-11T13:32:03.044Z,43.23
2019-03-11T13:35:16.777Z,41.60
2019-03-11T13:38:30.492Z,43.83
2019-03-11T13:41:44.369Z,45.05
2019-03-11T13:44:57.986Z,43.50
2019-03-11T13:48:11.741Z,40.82
2019-03-11T13:51:25.753Z,40.16
2019-03-11T13:54:39.882Z,40.51
2019-03-11T13:57:53.614Z,39.34
2019-03-11T14:01:07.298Z,40.84
2019-03-11T14:04:20.833Z,40.67
2019-03-11T14:07:34.869Z,41.41
2019-03-11T14:10:48.677Z,40.44
2019-03-11T14:14:02.954Z,43.95
2019-03-11T14:17:17.077Z,43.54
2019-03-11T14:20:30.655Z,44.18
2019-03-11T14:23:44.665Z,41.81
2019-03-11T14:26:58.213Z,43.46
2019-03-11T14:30:12.323Z,43.69
2019-03-11T14:33:26.035Z,45.16
2019-03-11T14:36:39.822Z,45.56
2019-03-11T14:39:53.465Z,46.69
2019-03-11T14:43:07.078Z,46.75
2019-03-11T14:46:20.594Z,47.53
2019-03-11T14:49:34.761Z,46.68
2019-03-11T14:52:48.314Z,47.09
2019-03-11T14:56:01.812Z,45.75
2019-03-11T14:59:15.321Z,45.40
2019-03-11T15:02:28.831Z,45.03
2019-03-11T15:05:42.586Z,46.06
2019-03-11T15:08:56.180Z,46.34
2019-03-11T15:12:09.932Z,46.17
2019-03-11T15:15:23.647Z,47.62
2019-03-11T15:18:37.734Z,47.71
2019-03-11T15:21:51.866Z,46.88
2019-03-11T15:25:06.334Z,45.90
2019-03-11T15:28:19.994Z,44.92
2019-03-11T15:31:33.490Z,43.49
2019-03-11T15:34:47.413Z,43.25
2019-03-11T15:38:01.140Z,41.87
2019-03-11T15:41:14.889Z,42.16
2019-03-11T15:44:28.912Z,43.97
2019-03-11T15:47:42.638Z,44.48
2019-03-11T15:50:56.585Z,44.63
2019-03-11T15:54:10.393Z,45.55
2019-03-11T15:57:24.504Z,45.93
2019-03-11T16:00:38.106Z,45.69
2019-03-11T16:03:51.889Z,44.66
2019-03-11T16:07:05.596Z,43.61
2019-03-11T16:10:19.505Z,43.87
2019-03-11T16:13:32.988Z,44.97
2019-03-11T16:16:46.622Z,46.09
2019-03-11T16:20:00.265Z,48.05
2019-03-11T16:23:14.094Z,49.31
2019-03-11T16:26:27.995Z,50.07
2019-03-11T16:29:41.889Z,50.55
2019-03-11T16:33:00.863Z,50.56
2019-03-11T16:36:11.115Z,49.77
2019-03-11T16:39:24.718Z,49.37
2019-03-11T16:42:38.414Z,50.45
2019-03-11T16:45:52.465Z,51.88
2019-03-11T16:49:06.059Z,51.97
2019-03-11T16:52:19.675Z,53.57
2019-03-11T16:55:35.372Z,54.05
2019-03-11T16:58:49.153Z,54.45
2019-03-11T17:02:02.948Z,54.01
2019-03-11T17:05:16.545Z,55.17
2019-03-11T17:08:30.322Z,56.01
2019-03-11T17:11:43.929Z,56.30
2019-03-11T17:14:57.527Z,56.04
2019-03-11T17:18:11.227Z,56.38
2019-03-11T17:21:24.835Z,57.30
2019-03-11T17:24:39.022Z,58.32
2019-03-11T17:27:52.996Z,58.84
2019-03-11T17:31:06.754Z,59.58
2019-03-11T17:34:20.263Z,60.37
2019-03-11T17:37:33.989Z,61.36
2019-03-11T17:40:47.579Z,62.45
2019-03-11T17:44:01.492Z,63.80
2019-03-11T17:47:15.076Z,64.14
2019-03-11T17:50:28.653Z,65.01
2019-03-11T17:53:42.239Z,65.80
2019-03-11T17:56:55.955Z,65.56
2019-03-11T18:00:15.554Z,66.26
2019-03-11T18:03:29.219Z,66.19
2019-03-11T18:06:42.803Z,66.29
2019-03-11T18:09:56.476Z,67.07
2019-03-11T18:13:10.271Z,67.10
2019-03-11T18:16:23.855Z,67.43
2019-03-11T18:19:37.511Z,67.80
2019-03-11T18:22:51.682Z,67.36
2019-03-11T18:26:05.158Z,67.06
2019-03-11T18:29:18.647Z,66.97
2019-03-11T18:32:32.566Z,66.56
2019-03-11T18:35:46.284Z,66.07
2019-03-11T18:39:00.184Z,65.72
2019-03-11T18:42:21.378Z,65.57
2019-03-11T18:45:29.238Z,65.76
2019-03-11T18:48:42.718Z,65.59
2019-03-11T18:51:56.234Z,65.77
2019-03-11T18:55:10.089Z,64.25
2019-03-11T18:58:23.678Z,64.00
2019-03-11T19:01:37.150Z,63.66
2019-03-11T19:04:50.651Z,63.41
2019-03-11T19:08:04.396Z,63.45
2019-03-11T19:11:17.982Z,63.44
2019-03-11T19:14:31.806Z,63.71
2019-03-11T19:17:45.488Z,63.52
2019-03-11T19:20:58.979Z,63.43
2019-03-11T19:24:12.539Z,63.70
2019-03-11T19:27:26.224Z,64.16
2019-03-11T19:30:39.829Z,63.88
2019-03-11T19:33:53.551Z,63.95
2019-03-11T19:37:07.140Z,64.32
2019-03-11T19:40:20.762Z,64.31
2019-03-11T19:43:34.290Z,64.81
2019-03-11T19:46:47.857Z,64.65
2019-03-11T19:50:01.610Z,64.82
2019-03-11T19:53:15.332Z,65.27
2019-03-11T19:56:29.073Z,65.26
2019-03-11T19:59:42.966Z,65.18
2019-03-11T20:02:56.555Z,65.18
2019-03-11T20:06:10.123Z,65.20
2019-03-11T20:09:24.038Z,65.00
2019-03-11T20:12:37.942Z,65.02
2019-03-11T20:15:53.945Z,64.97
2019-03-11T20:19:07.901Z,64.99
2019-03-11T20:22:21.636Z,65.21
2019-03-11T20:25:35.509Z,65.41
2019-03-11T20:28:48.993Z,65.13
2019-03-11T20:32:02.780Z,65.40
2019-03-11T20:35:17.791Z,65.19
2019-03-11T20:38:31.855Z,65.02
2019-03-11T20:41:45.407Z,64.84
2019-03-11T20:44:59.270Z,65.54
2019-03-11T20:48:12.837Z,65.42
2019-03-11T20:51:26.364Z,65.28
2019-03-11T20:54:40.149Z,65.67
2019-03-11T20:57:53.782Z,65.44
2019-03-11T21:01:07.608Z,65.46
2019-03-11T21:04:21.469Z,65.70
2019-03-11T21:07:34.929Z,65.25
2019-03-11T21:10:48.499Z,65.10
2019-03-11T21:14:02.386Z,65.18
2019-03-11T21:17:25.248Z,65.50
2019-03-11T21:20:31.535Z,65.77
2019-03-11T21:23:45.004Z,65.60
2019-03-11T21:26:58.679Z,65.33
2019-03-11T21:30:14.611Z,65.30
2019-03-11T21:33:28.203Z,65.70
2019-03-11T21:36:41.794Z,65.63
2019-03-11T21:39:55.283Z,65.63
2019-03-11T21:43:08.920Z,65.82
2019-03-11T21:46:22.445Z,65.83
2019-03-11T21:49:35.965Z,65.87
2019-03-11T21:52:49.621Z,65.73
2019-03-11T21:56:03.270Z,65.75
2019-03-11T21:59:17.095Z,65.54
2019-03-11T22:02:30.740Z,66.44
2019-03-11T22:05:44.615Z,65.68
2019-03-11T22:08:58.109Z,65.68
2019-03-11T22:12:12.131Z,65.39
2019-03-11T22:15:25.876Z,65.82
2019-03-11T22:18:39.627Z,66.00
2019-03-11T22:21:53.433Z,66.03
2019-03-11T22:25:08.818Z,66.29
2019-03-11T22:28:22.297Z,65.99
2019-03-11T22:31:35.845Z,66.20
2019-03-11T22:34:49.692Z,65.86
2019-03-11T22:38:03.278Z,66.17
2019-03-11T22:41:16.781Z,66.62
2019-03-11T22:44:30.258Z,66.37
2019-03-11T22:47:44.135Z,66.52
2019-03-11T22:50:57.625Z,67.25
2019-03-11T22:54:11.112Z,67.19
2019-03-11T23:01:41.232Z,67.52
2019-03-11T23:04:54.810Z,67.62
2019-03-11T23:08:08.912Z,68.03
2019-03-11T23:11:22.736Z,68.14
2019-03-11T23:14:36.211Z,68.03
2019-03-11T23:17:49.697Z,67.79
2019-03-11T23:21:03.367Z,68.47
2019-03-11T23:24:16.857Z,69.13
2019-03-11T23:27:30.440Z,68.11
2019-03-11T23:30:44.165Z,68.08
2019-03-11T23:33:57.985Z,68.23
2019-03-11T23:37:12.169Z,68.52
2019-03-11T23:40:25.927Z,68.73
2019-03-11T23:43:39.524Z,68.84
2019-03-11T23:46:53.092Z,68.47
2019-03-11T23:50:07.044Z,68.64
2019-03-11T23:53:20.810Z,68.39
2019-03-11T23:56:34.276Z,68.85
2019-03-11T23:59:47.854Z,69.26
